createdAt,value
2022-07-27T00:01:00.982Z,4.30
2022-07-27T00:03:27.711Z,4.40
2022-07-27T00:05:54.479Z,4.47
2022-07-27T00:08:22.318Z,4.50
2022-07-27T00:10:49.003Z,4.60
2022-07-27T00:13:15.843Z,4.20
2022-07-27T00:15:42.738Z,4.03
2022-07-27T00:18:09.735Z,4.30
2022-07-27T00:20:36.762Z,4.67
2022-07-27T00:23:03.652Z,4.30
2022-07-27T00:25:30.318Z,4.37
2022-07-27T00:27:57.151Z,4.30
2022-07-27T00:30:24.887Z,4.40
2022-07-27T00:32:51.996Z,4.27
2022-07-27T00:35:19.584Z,4.33
2022-07-27T00:37:46.448Z,4.70
2022-07-27T00:40:13.245Z,4.40
2022-07-27T00:42:40.157Z,4.27
2022-07-27T00:45:07.494Z,4.77
2022-07-27T00:47:34.241Z,4.50
2022-07-27T00:50:01.016Z,4.03
2022-07-27T00:52:29.749Z,4.33
2022-07-27T00:54:56.639Z,5.10
2022-07-27T00:57:23.708Z,4.60
2022-07-27T00:59:50.467Z,4.10
2022-07-27T01:02:19.337Z,4.57
2022-07-27T01:04:47.257Z,4.20
2022-07-27T01:07:14.673Z,4.30
2022-07-27T01:09:57.723Z,4.10
2022-07-27T01:12:30.594Z,4.40
2022-07-27T01:14:58.485Z,4.13
2022-07-27T01:17:26.809Z,4.20
2022-07-27T01:19:53.890Z,4.50
2022-07-27T01:22:20.635Z,4.40
2022-07-27T01:24:48.476Z,4.00
2022-07-27T01:27:15.207Z,4.40
2022-07-27T01:29:41.938Z,4.07
2022-07-27T01:32:08.795Z,4.10
2022-07-27T01:34:35.782Z,4.20
2022-07-27T01:37:03.034Z,4.53
2022-07-27T01:39:30.567Z,4.50
2022-07-27T01:41:57.861Z,4.60
2022-07-27T01:44:24.555Z,4.50
2022-07-27T01:46:51.577Z,4.10
2022-07-27T01:49:18.686Z,4.20
2022-07-27T01:51:45.494Z,4.50
2022-07-27T01:54:12.381Z,4.30
2022-07-27T01:56:39.079Z,3.90
2022-07-27T01:59:05.808Z,4.23
2022-07-27T02:01:32.561Z,4.13
2022-07-27T02:03:59.262Z,4.17
2022-07-27T02:06:26.078Z,4.10
2022-07-27T02:08:52.772Z,4.30
2022-07-27T02:11:37.973Z,4.47
2022-07-27T02:14:04.654Z,3.90
2022-07-27T02:16:31.439Z,3.83
2022-07-27T02:18:58.342Z,3.90
2022-07-27T02:21:25.168Z,3.80
2022-07-27T02:23:51.912Z,3.97
2022-07-27T02:26:18.823Z,4.00
2022-07-27T02:28:45.477Z,4.20
2022-07-27T02:31:12.171Z,4.07
2022-07-27T02:33:38.855Z,3.90
2022-07-27T02:36:05.779Z,3.80
2022-07-27T02:38:32.448Z,4.07
2022-07-27T02:40:59.185Z,4.07
2022-07-27T02:43:25.921Z,4.10
2022-07-27T02:45:52.731Z,3.83
2022-07-27T02:48:19.464Z,3.83
2022-07-27T02:50:46.347Z,3.77
2022-07-27T02:53:13.093Z,3.77
2022-07-27T02:55:40.082Z,3.90
2022-07-27T02:58:07.030Z,3.80
2022-07-27T03:00:34.160Z,3.90
2022-07-27T03:03:01.266Z,4.07
2022-07-27T03:05:27.938Z,4.13
2022-07-27T03:07:54.612Z,3.70
2022-07-27T03:10:21.293Z,3.87
2022-07-27T03:12:47.974Z,3.90
2022-07-27T03:15:14.657Z,3.97
2022-07-27T03:17:42.548Z,3.90
2022-07-27T03:20:12.748Z,4.33
2022-07-27T03:22:39.504Z,3.77
2022-07-27T03:25:06.921Z,4.10
2022-07-27T03:27:33.611Z,4.30
2022-07-27T03:30:00.396Z,4.00
2022-07-27T03:32:27.075Z,3.90
2022-07-27T03:34:53.747Z,3.87
2022-07-27T03:37:20.914Z,4.43
2022-07-27T03:39:47.626Z,3.87
2022-07-27T03:42:14.432Z,4.67
2022-07-27T03:44:41.173Z,4.10
2022-07-27T03:47:07.866Z,3.90
2022-07-27T03:49:34.653Z,4.23
2022-07-27T03:52:01.525Z,4.10
2022-07-27T03:54:28.601Z,4.30
2022-07-27T03:56:55.383Z,4.07
2022-07-27T03:59:22.170Z,3.80
2022-07-27T04:01:48.851Z,4.20
2022-07-27T04:04:15.555Z,4.40
2022-07-27T04:06:42.282Z,4.10
2022-07-27T04:09:09.213Z,4.13
2022-07-27T04:11:37.830Z,4.40
2022-07-27T04:14:17.325Z,4.40
2022-07-27T04:16:44.112Z,4.40
2022-07-27T04:19:11.185Z,4.57
2022-07-27T04:21:38.172Z,4.10
2022-07-27T04:24:05.538Z,3.97
2022-07-27T04:26:32.363Z,4.00
2022-07-27T04:28:59.042Z,3.80
2022-07-27T04:31:25.724Z,4.00
2022-07-27T04:33:52.388Z,4.33
2022-07-27T04:36:19.172Z,4.03
2022-07-27T04:38:45.877Z,4.47
2022-07-27T04:41:12.909Z,4.10
2022-07-27T04:43:39.864Z,4.33
2022-07-27T04:46:10.507Z,4.27
2022-07-27T04:48:40.080Z,4.10
2022-07-27T04:51:08.186Z,4.97
2022-07-27T04:53:36.959Z,4.13
2022-07-27T04:56:20.766Z,4.00
2022-07-27T04:58:47.894Z,4.00
2022-07-27T05:01:14.735Z,3.80
2022-07-27T05:03:43.039Z,4.20
2022-07-27T05:06:09.795Z,4.00
2022-07-27T05:08:36.544Z,4.17
2022-07-27T05:11:03.251Z,4.23
2022-07-27T05:13:29.940Z,4.13
2022-07-27T05:15:56.643Z,4.20
2022-07-27T05:18:24.068Z,3.90
2022-07-27T05:20:50.788Z,4.00
2022-07-27T05:23:17.856Z,4.07
2022-07-27T05:25:44.692Z,4.77
2022-07-27T05:28:12.383Z,4.00
2022-07-27T05:30:39.158Z,4.80
2022-07-27T05:33:05.853Z,4.00
2022-07-27T05:35:32.560Z,4.07
2022-07-27T05:37:59.569Z,4.20
2022-07-27T05:40:26.528Z,4.37
2022-07-27T05:42:53.323Z,3.97
2022-07-27T05:45:20.391Z,4.33
2022-07-27T05:47:47.107Z,3.63
2022-07-27T05:50:14.678Z,4.23
2022-07-27T05:52:41.956Z,4.10
2022-07-27T05:55:09.204Z,4.23
2022-07-27T05:57:36.531Z,4.30
2022-07-27T06:00:05.003Z,4.50
2022-07-27T06:02:31.822Z,3.97
2022-07-27T06:04:58.718Z,4.10
2022-07-27T06:07:43.887Z,4.30
2022-07-27T06:10:16.570Z,4.90
2022-07-27T06:12:45.317Z,5.67
2022-07-27T06:15:13.695Z,4.00
2022-07-27T06:17:41.099Z,3.70
2022-07-27T06:20:08.834Z,4.30
2022-07-27T06:23:09.010Z,3.90
2022-07-27T06:25:36.140Z,4.60
2022-07-27T06:28:04.765Z,4.50
2022-07-27T06:30:31.557Z,3.90
2022-07-27T06:32:59.072Z,3.90
2022-07-27T06:35:26.418Z,3.77
2022-07-27T06:37:54.184Z,4.10
2022-07-27T06:40:21.168Z,3.70
2022-07-27T06:42:48.502Z,3.80
2022-07-27T06:45:15.656Z,3.40
2022-07-27T06:47:49.223Z,4.17
2022-07-27T06:50:18.465Z,4.10
2022-07-27T06:52:45.242Z,4.03
2022-07-27T06:55:12.348Z,3.60
2022-07-27T06:57:39.204Z,3.07
2022-07-27T07:00:07.291Z,3.63
2022-07-27T07:02:34.048Z,2.90
2022-07-27T07:05:00.703Z,2.83
2022-07-27T07:07:27.443Z,2.60
2022-07-27T07:09:54.100Z,3.07
2022-07-27T07:12:20.836Z,2.97
2022-07-27T07:14:47.520Z,2.93
2022-07-27T07:17:14.174Z,2.50
2022-07-27T07:19:40.928Z,2.43
2022-07-27T07:22:07.605Z,2.60
2022-07-27T07:24:34.360Z,2.60
2022-07-27T07:27:01.024Z,2.60
2022-07-27T07:29:27.811Z,2.47
2022-07-27T07:31:54.561Z,2.90
2022-07-27T07:34:21.270Z,2.60
2022-07-27T07:36:47.954Z,2.83
2022-07-27T07:39:15.047Z,2.60
2022-07-27T07:41:42.012Z,3.30
2022-07-27T07:44:10.036Z,3.47
2022-07-27T07:46:37.044Z,2.80
2022-07-27T07:49:05.453Z,3.00
2022-07-27T07:51:32.318Z,2.90
2022-07-27T07:53:59.358Z,3.30
2022-07-27T07:56:26.106Z,3.30
2022-07-27T07:58:52.927Z,3.13
2022-07-27T08:01:19.601Z,3.00
2022-07-27T08:03:50.853Z,3.17
2022-07-27T08:06:18.732Z,3.20
2022-07-27T08:08:45.400Z,3.20
2022-07-27T08:11:12.087Z,3.53
2022-07-27T08:13:38.763Z,3.00
2022-07-27T08:16:05.923Z,3.10
2022-07-27T08:18:32.876Z,3.10
2022-07-27T08:20:59.663Z,3.97
2022-07-27T08:23:29.161Z,2.90
2022-07-27T08:25:55.829Z,3.10
2022-07-27T08:28:22.495Z,3.30
2022-07-27T08:30:49.520Z,2.93
2022-07-27T08:33:16.985Z,3.50
2022-07-27T08:35:45.662Z,3.37
2022-07-27T08:38:12.527Z,3.40
2022-07-27T08:40:43.420Z,3.90
2022-07-27T08:43:18.882Z,3.60
2022-07-27T08:45:55.341Z,3.70
2022-07-27T08:48:24.631Z,5.07
2022-07-27T08:50:51.502Z,3.57
2022-07-27T08:53:18.762Z,3.63
2022-07-27T08:55:47.303Z,3.10
2022-07-27T08:58:15.273Z,3.50
2022-07-27T09:00:44.527Z,3.57
2022-07-27T09:03:18.551Z,3.70
2022-07-27T09:05:47.750Z,3.80
2022-07-27T09:08:17.903Z,3.00
2022-07-27T09:10:44.831Z,3.30
2022-07-27T09:13:23.545Z,3.17
2022-07-27T09:18:40.427Z,2.87
2022-07-27T09:21:11.357Z,3.00
2022-07-27T09:23:54.287Z,2.80
2022-07-27T09:26:34.762Z,2.73
2022-07-27T09:29:03.732Z,2.80
2022-07-27T09:31:30.971Z,3.20
2022-07-27T09:34:02.829Z,2.83
2022-07-27T09:36:31.122Z,3.10
2022-07-27T09:39:06.838Z,3.00
2022-07-27T09:41:48.661Z,2.77
2022-07-27T09:44:32.952Z,2.57
2022-07-27T09:47:02.003Z,2.50
2022-07-27T09:49:34.150Z,2.50
2022-07-27T09:52:03.330Z,2.30
2022-07-27T09:54:45.174Z,2.60
2022-07-27T09:57:11.977Z,3.10
2022-07-27T09:59:38.719Z,2.33
2022-07-27T10:02:05.687Z,2.67
2022-07-27T10:04:35.629Z,2.30
2022-07-27T10:07:04.699Z,2.50
2022-07-27T10:09:35.011Z,3.00
2022-07-27T10:12:04.463Z,3.07
2022-07-27T10:14:32.542Z,3.00
2022-07-27T10:16:59.654Z,3.47
2022-07-27T10:19:45.800Z,3.20
2022-07-27T10:22:13.991Z,2.73
2022-07-27T10:24:40.668Z,2.90
2022-07-27T10:27:27.911Z,3.13
2022-07-27T10:29:55.250Z,3.00
2022-07-27T10:32:23.847Z,2.93
2022-07-27T10:34:50.551Z,3.23
2022-07-27T10:37:28.592Z,2.70
2022-07-27T10:40:15.540Z,3.90
2022-07-27T10:42:43.901Z,2.60
2022-07-27T10:45:15.182Z,2.63
2022-07-27T10:47:47.051Z,3.20
2022-07-27T10:50:16.927Z,2.77
2022-07-27T10:52:51.128Z,2.90
2022-07-27T10:55:30.237Z,2.70
2022-07-27T10:58:15.074Z,2.50
2022-07-27T11:00:54.691Z,2.67
2022-07-27T11:03:42.582Z,2.97
2022-07-27T11:06:31.869Z,2.93
2022-07-27T11:11:49.696Z,3.03
2022-07-27T11:14:18.927Z,2.60
2022-07-27T11:16:55.879Z,3.00
2022-07-27T11:19:24.042Z,2.80
2022-07-27T11:21:52.448Z,3.73
2022-07-27T11:24:19.271Z,2.80
2022-07-27T11:26:52.708Z,2.90
2022-07-27T11:29:22.343Z,3.40
2022-07-27T11:31:56.471Z,2.90
2022-07-27T11:34:33.592Z,3.37
2022-07-27T11:37:05.543Z,3.13
2022-07-27T11:39:59.981Z,3.00
2022-07-27T11:42:23.807Z,2.50
2022-07-27T11:44:52.839Z,2.83
2022-07-27T11:47:23.978Z,2.80
2022-07-27T11:49:50.929Z,2.53
2022-07-27T11:52:18.716Z,3.03
2022-07-27T11:54:51.699Z,2.93
2022-07-27T11:57:22.535Z,2.77
2022-07-27T11:59:49.192Z,2.90
2022-07-27T12:02:20.277Z,3.00
2022-07-27T12:04:49.757Z,3.00
2022-07-27T12:07:29.798Z,2.77
2022-07-27T12:10:02.496Z,3.30
2022-07-27T12:12:32.951Z,3.00
2022-07-27T12:15:44.243Z,3.43
2022-07-27T12:18:01.167Z,2.87
2022-07-27T12:20:35.687Z,2.77
2022-07-27T12:23:07.028Z,3.00
2022-07-27T12:25:35.023Z,3.07
2022-07-27T12:28:04.480Z,2.83
2022-07-27T12:30:38.780Z,2.83
2022-07-27T12:33:07.699Z,3.20
2022-07-27T12:35:46.973Z,3.10
2022-07-27T12:38:14.323Z,2.80
2022-07-27T12:40:50.033Z,2.70
2022-07-27T12:43:19.129Z,2.80
2022-07-27T12:45:47.378Z,3.40
2022-07-27T12:48:18.077Z,2.70
2022-07-27T12:51:05.892Z,2.70
2022-07-27T12:53:33.615Z,2.80
2022-07-27T12:56:03.781Z,2.70
2022-07-27T12:58:30.935Z,2.67
2022-07-27T13:00:57.789Z,2.77
2022-07-27T13:03:24.562Z,2.80
2022-07-27T13:05:51.330Z,2.60
2022-07-27T13:08:18.015Z,3.20
2022-07-27T13:10:44.889Z,2.67
2022-07-27T13:13:12.027Z,2.43
2022-07-27T13:15:38.856Z,2.50
2022-07-27T13:18:05.567Z,2.43
2022-07-27T13:20:32.713Z,2.80
2022-07-27T13:22:59.394Z,3.20
2022-07-27T13:25:26.128Z,2.60
2022-07-27T13:27:52.889Z,2.53
2022-07-27T13:30:19.824Z,2.50
2022-07-27T13:32:47.893Z,2.50
2022-07-27T13:35:16.583Z,2.40
2022-07-27T13:37:43.591Z,2.50
2022-07-27T13:40:10.595Z,2.60
2022-07-27T13:42:37.574Z,2.47
2022-07-27T13:45:11.254Z,2.30
2022-07-27T13:47:39.945Z,2.70
2022-07-27T13:50:16.781Z,2.40
2022-07-27T13:52:44.922Z,2.70
2022-07-27T13:55:14.054Z,2.30
2022-07-27T13:57:40.751Z,3.23
2022-07-27T14:00:08.058Z,2.60
2022-07-27T14:02:34.809Z,2.60
2022-07-27T14:05:02.457Z,2.73
2022-07-27T14:07:31.086Z,2.67
2022-07-27T14:10:16.600Z,2.50
2022-07-27T14:12:43.322Z,2.90
2022-07-27T14:15:10.515Z,2.80
2022-07-27T14:17:37.481Z,2.30
2022-07-27T14:20:06.116Z,2.67
2022-07-27T14:22:33.008Z,2.30
2022-07-27T14:24:59.815Z,2.60
2022-07-27T14:27:26.502Z,2.50
2022-07-27T14:30:04.294Z,2.43
2022-07-27T14:32:31.121Z,3.33
2022-07-27T14:34:58.156Z,2.40
2022-07-27T14:37:24.874Z,2.30
2022-07-27T14:39:51.565Z,2.53
2022-07-27T14:42:21.987Z,2.93
2022-07-27T14:44:48.643Z,2.37
2022-07-27T14:47:15.332Z,2.40
2022-07-27T14:49:42.076Z,2.40
2022-07-27T14:52:13.324Z,2.40
2022-07-27T14:54:43.668Z,3.70
2022-07-27T14:57:10.873Z,2.43
2022-07-27T14:59:37.757Z,2.60
2022-07-27T15:02:04.850Z,3.00
2022-07-27T15:04:32.035Z,2.70
2022-07-27T15:07:00.751Z,2.80
2022-07-27T15:09:30.252Z,2.70
2022-07-27T15:11:57.844Z,2.70
2022-07-27T15:14:24.736Z,3.03
2022-07-27T15:16:52.315Z,2.50
2022-07-27T15:19:19.006Z,2.40
2022-07-27T15:21:47.106Z,2.60
2022-07-27T15:24:14.091Z,3.27
2022-07-27T15:26:40.828Z,2.60
2022-07-27T15:29:10.028Z,2.50
2022-07-27T15:31:43.234Z,2.83
2022-07-27T15:34:10.496Z,2.70
2022-07-27T15:36:43.657Z,2.80
2022-07-27T15:39:13.581Z,2.90
2022-07-27T15:41:40.947Z,2.60
2022-07-27T15:44:07.916Z,2.40
2022-07-27T15:46:34.776Z,2.93
2022-07-27T15:49:01.810Z,2.60
2022-07-27T15:51:28.586Z,2.53
2022-07-27T15:53:56.922Z,4.33
2022-07-27T15:56:24.271Z,2.83
2022-07-27T15:58:50.949Z,2.80
2022-07-27T16:01:21.177Z,2.90
2022-07-27T16:03:48.991Z,3.00
2022-07-27T16:06:16.344Z,3.10
2022-07-27T16:08:46.238Z,2.87
2022-07-27T16:11:12.918Z,2.73
2022-07-27T16:13:39.662Z,3.10
2022-07-27T16:16:25.105Z,2.80
2022-07-27T16:18:53.462Z,3.10
2022-07-27T16:21:24.942Z,3.30
2022-07-27T16:23:53.608Z,3.50
2022-07-27T16:26:21.271Z,3.97
2022-07-27T16:28:49.601Z,2.97
2022-07-27T16:31:19.784Z,3.10
2022-07-27T16:33:49.640Z,3.50
2022-07-27T16:36:23.064Z,2.93
2022-07-27T16:38:51.791Z,3.37
2022-07-27T16:41:20.368Z,3.23
2022-07-27T16:43:47.637Z,3.17
2022-07-27T16:46:14.466Z,3.30
2022-07-27T16:48:42.352Z,3.30
2022-07-27T16:51:13.938Z,3.50
2022-07-27T16:53:42.768Z,3.40
2022-07-27T16:56:10.133Z,3.30
2022-07-27T16:58:38.036Z,3.50
2022-07-27T17:01:05.198Z,3.03
2022-07-27T17:03:31.959Z,3.47
2022-07-27T17:06:02.197Z,3.20
2022-07-27T17:08:31.830Z,3.33
2022-07-27T17:11:00.446Z,3.10
2022-07-27T17:13:33.876Z,3.30
2022-07-27T17:16:05.871Z,3.03
2022-07-27T17:18:39.380Z,3.50
2022-07-27T17:21:07.447Z,3.30
2022-07-27T17:23:38.011Z,3.10
2022-07-27T17:26:07.207Z,3.00
2022-07-27T17:28:36.726Z,3.43
2022-07-27T17:31:05.584Z,3.20
2022-07-27T17:33:32.976Z,3.30
2022-07-27T17:36:00.061Z,3.10
2022-07-27T17:38:27.440Z,3.37
2022-07-27T17:40:54.170Z,3.33
2022-07-27T17:43:20.871Z,3.10
2022-07-27T17:45:47.692Z,3.43
2022-07-27T17:48:14.468Z,3.40
2022-07-27T17:50:41.146Z,3.10
2022-07-27T17:53:07.859Z,3.23
2022-07-27T17:55:36.430Z,3.40
2022-07-27T17:58:03.432Z,3.27
2022-07-27T18:00:30.620Z,4.13
2022-07-27T18:02:57.396Z,3.30
2022-07-27T18:05:24.206Z,3.33
2022-07-27T18:07:52.058Z,3.30
2022-07-27T18:10:18.861Z,3.33
2022-07-27T18:12:45.543Z,3.50
2022-07-27T18:15:31.004Z,3.40
2022-07-27T18:17:57.718Z,3.53
2022-07-27T18:20:24.461Z,4.30
2022-07-27T18:22:51.154Z,3.07
2022-07-27T18:25:17.837Z,3.50
2022-07-27T18:27:49.946Z,3.47
2022-07-27T18:30:17.732Z,3.40
2022-07-27T18:32:48.124Z,3.20
2022-07-27T18:35:14.998Z,3.60
2022-07-27T18:37:41.830Z,3.03
2022-07-27T18:40:09.248Z,3.17
2022-07-27T18:42:37.199Z,3.27
2022-07-27T18:45:09.363Z,2.90
2022-07-27T18:47:36.602Z,3.50
2022-07-27T18:50:05.139Z,3.23
2022-07-27T18:52:32.162Z,3.50
2022-07-27T18:54:58.936Z,3.20
2022-07-27T18:57:25.748Z,3.37
2022-07-27T18:59:53.537Z,3.50
2022-07-27T19:02:20.754Z,3.63
2022-07-27T19:04:47.552Z,3.70
2022-07-27T19:07:14.951Z,4.00
2022-07-27T19:09:42.499Z,3.83
2022-07-27T19:12:09.982Z,3.40
2022-07-27T19:14:37.050Z,3.50
2022-07-27T19:17:03.894Z,3.60
2022-07-27T19:19:30.985Z,3.93
2022-07-27T19:21:58.068Z,4.20
2022-07-27T19:24:24.809Z,3.50
2022-07-27T19:26:51.554Z,3.60
2022-07-27T19:29:19.814Z,3.50
2022-07-27T19:31:46.969Z,3.37
2022-07-27T19:34:13.692Z,3.60
2022-07-27T19:36:40.415Z,3.60
2022-07-27T19:39:08.033Z,4.00
2022-07-27T19:41:35.495Z,3.73
2022-07-27T19:44:02.694Z,3.53
2022-07-27T19:46:29.608Z,3.43
2022-07-27T19:48:56.539Z,4.10
2022-07-27T19:51:23.627Z,3.43
2022-07-27T19:53:50.736Z,3.57
2022-07-27T19:56:17.478Z,3.87
2022-07-27T19:58:44.523Z,3.60
2022-07-27T20:01:12.526Z,3.50
2022-07-27T20:03:52.642Z,3.50
2022-07-27T20:06:22.483Z,3.50
2022-07-27T20:08:49.281Z,3.80
2022-07-27T20:11:15.968Z,3.73
2022-07-27T20:13:42.658Z,3.87
2022-07-27T20:16:09.342Z,3.60
2022-07-27T20:18:37.617Z,3.67
2022-07-27T20:21:04.674Z,3.87
2022-07-27T20:23:49.808Z,3.80
2022-07-27T20:26:16.582Z,3.63
2022-07-27T20:28:43.247Z,4.00
2022-07-27T20:31:10.089Z,3.80
2022-07-27T20:33:37.056Z,4.03
2022-07-27T20:36:04.946Z,4.23
2022-07-27T20:38:31.727Z,3.57
2022-07-27T20:40:59.344Z,4.70
2022-07-27T20:43:27.559Z,3.80
2022-07-27T20:45:54.949Z,3.67
2022-07-27T20:48:21.715Z,3.70
2022-07-27T20:50:48.394Z,3.90
2022-07-27T20:53:15.095Z,4.03
2022-07-27T20:55:42.757Z,3.63
2022-07-27T20:58:09.638Z,3.43
2022-07-27T21:00:37.342Z,3.70
2022-07-27T21:03:04.289Z,3.50
2022-07-27T21:05:31.033Z,3.90
2022-07-27T21:07:57.985Z,3.70
2022-07-27T21:10:24.867Z,3.90
2022-07-27T21:12:51.763Z,3.87
2022-07-27T21:15:18.524Z,3.60
2022-07-27T21:17:45.251Z,3.80
2022-07-27T21:20:13.536Z,3.80
2022-07-27T21:22:40.868Z,3.80
2022-07-27T21:25:07.905Z,3.58
2022-07-27T21:27:34.701Z,4.40
2022-07-27T21:30:01.415Z,3.70
2022-07-27T21:32:28.963Z,3.72
2022-07-27T21:34:55.656Z,3.90
2022-07-27T21:37:22.343Z,3.77
2022-07-27T21:39:48.989Z,4.77
2022-07-27T21:42:15.786Z,3.90
2022-07-27T21:44:42.462Z,4.13
2022-07-27T21:47:13.811Z,3.90
2022-07-27T21:49:41.572Z,3.87
2022-07-27T21:52:08.478Z,3.80
2022-07-27T21:54:35.149Z,3.80
2022-07-27T21:57:01.890Z,3.70
2022-07-27T21:59:28.537Z,3.70
2022-07-27T22:01:55.858Z,5.90
2022-07-27T22:04:22.712Z,3.83
2022-07-27T22:06:49.411Z,4.10
2022-07-27T22:09:16.175Z,4.25
2022-07-27T22:11:42.928Z,3.83
2022-07-27T22:14:09.686Z,4.00
2022-07-27T22:16:36.379Z,4.10
2022-07-27T22:19:03.217Z,4.10
2022-07-27T22:21:30.348Z,3.92
2022-07-27T22:23:57.158Z,6.13
2022-07-27T22:26:23.847Z,4.30
2022-07-27T22:28:50.520Z,3.70
2022-07-27T22:31:22.256Z,3.80
2022-07-27T22:33:49.732Z,4.07
2022-07-27T22:36:16.426Z,4.17
2022-07-27T22:38:43.098Z,4.00
2022-07-27T22:41:09.819Z,4.05
2022-07-27T22:43:36.643Z,4.30
2022-07-27T22:46:04.734Z,4.25
2022-07-27T22:48:31.743Z,4.15
2022-07-27T22:50:58.683Z,3.97
2022-07-27T22:53:25.464Z,4.80
2022-07-27T22:55:52.193Z,4.00
2022-07-27T22:58:18.870Z,4.00
2022-07-27T23:00:45.585Z,3.95
2022-07-27T23:03:12.342Z,4.15
2022-07-27T23:05:39.101Z,4.10
2022-07-27T23:08:06.113Z,4.50
2022-07-27T23:10:48.228Z,4.37
2022-07-27T23:13:16.448Z,3.95
2022-07-27T23:15:44.168Z,4.45
2022-07-27T23:18:11.935Z,3.90
2022-07-27T23:20:39.882Z,4.10
2022-07-27T23:23:15.555Z,4.40
2022-07-27T23:25:44.441Z,4.20
2022-07-27T23:28:11.430Z,4.38
2022-07-27T23:30:38.210Z,4.00
2022-07-27T23:33:05.091Z,4.28
2022-07-27T23:35:32.262Z,3.78
2022-07-27T23:38:00.026Z,3.90
2022-07-27T23:40:27.361Z,4.20
2022-07-27T23:42:54.215Z,4.43
2022-07-27T23:45:20.939Z,3.85
2022-07-27T23:47:47.598Z,4.05
2022-07-27T23:50:14.476Z,4.28
2022-07-27T23:52:41.198Z,3.85
2022-07-27T23:55:08.095Z,4.40
2022-07-27T23:57:35.283Z,4.22
